Time;durP1;ratioP1;P1;durP2;ratioP2;P2;SDS_P1;SDS_P2;PMS_P1;PMS_P2;Temp;Humidity;BMP_temperature;BMP_pressure;BME280_temperature;BME280_humidity;BME280_pressure;Samples;Min_cycle;Max_cycle;Signal;HPM_P1;HPM_P2
2022/04/01 00:01:28;;;;;;;;;0.50;0.25;;;;;;;;5094425;27;45541;-71
2022/04/01 00:03:53;;;;;;;;;0.00;0.00;;;;;;;;5095416;27;45987;-71
2022/04/01 00:06:18;;;;;;;;;1.00;0.00;;;;;;;;5095005;27;45404;-71
2022/04/01 00:08:43;;;;;;;;;0.25;0.25;;;;;;;;5096450;27;45455;-71
2022/04/01 00:11:09;;;;;;;;;2.25;1.00;;;;;;;;5094212;27;45592;-71
2022/04/01 00:13:34;;;;;;;;;0.00;0.00;;;;;;;;5096126;27;46018;-71
2022/04/01 00:16:00;;;;;;;;;1.00;1.00;;;;;;;;5095378;27;45541;-71
2022/04/01 00:18:25;;;;;;;;;2.75;1.00;;;;;;;;5098017;27;45444;-71
2022/04/01 00:20:50;;;;;;;;;1.00;1.00;;;;;;;;5096851;27;45459;-71
2022/04/01 00:23:16;;;;;;;;;1.00;1.00;;;;;;;;5079490;27;47390;-71
2022/04/01 00:25:42;;;;;;;;;0.75;0.50;;;;;;;;5094502;27;45344;-71
2022/04/01 00:28:07;;;;;;;;;1.50;1.00;;;;;;;;5096367;27;45600;-71
2022/04/01 00:30:34;;;;;;;;;1.50;1.50;;;;;;;;5096270;27;45544;-71
2022/04/01 00:32:59;;;;;;;;;2.00;1.50;;;;;;;;5098132;27;47502;-71
2022/04/01 00:35:25;;;;;;;;;1.00;1.00;;;;;;;;5096217;27;45508;-71
2022/04/01 00:37:50;;;;;;;;;1.75;1.75;;;;;;;;5095782;27;45425;-71
2022/04/01 00:40:15;;;;;;;;;1.50;1.00;;;;;;;;5097889;27;45489;-71
2022/04/01 00:42:41;;;;;;;;;0.50;0.25;;;;;;;;5096196;27;45699;-71
2022/04/01 00:45:07;;;;;;;;;2.50;0.00;;;;;;;;5098045;27;45310;-71
2022/04/01 00:47:32;;;;;;;;;1.25;1.25;;;;;;;;5096036;27;45343;-71
2022/04/01 00:49:57;;;;;;;;;2.50;2.00;;;;;;;;5092993;27;45484;-71
2022/04/01 00:52:22;;;;;;;;;1.50;1.50;;;;;;;;5093808;27;46374;-71
2022/04/01 00:54:49;;;;;;;;;0.50;0.50;;;;;;;;5087877;27;45406;-71
2022/04/01 00:57:14;;;;;;;;;0.75;0.75;;;;;;;;5097057;27;45367;-71
2022/04/01 00:59:40;;;;;;;;;1.50;1.00;;;;;;;;5096671;27;45245;-71
2022/04/01 01:02:06;;;;;;;;;3.00;0.25;;;;;;;;5092951;27;46659;-71
2022/04/01 01:04:31;;;;;;;;;1.25;1.25;;;;;;;;5086743;27;45466;-71
2022/04/01 01:06:58;;;;;;;;;1.25;1.00;;;;;;;;5093929;27;45456;-71
2022/04/01 01:09:25;;;;;;;;;2.25;1.00;;;;;;;;5096052;27;45275;-71
2022/04/01 01:11:51;;;;;;;;;1.25;1.00;;;;;;;;5095213;27;46305;-71
2022/04/01 01:14:21;;;;;;;;;1.50;1.00;;;;;;;;5094772;27;45499;-71
2022/04/01 01:16:47;;;;;;;;;1.00;1.00;;;;;;;;5095708;27;45377;-70
2022/04/01 01:19:13;;;;;;;;;2.00;0.00;;;;;;;;5094834;27;45493;-71
2022/04/01 01:21:39;;;;;;;;;1.50;1.50;;;;;;;;5079652;27;45253;-71
2022/04/01 01:24:06;;;;;;;;;2.00;2.00;;;;;;;;5091897;27;45509;-71
2022/04/01 01:26:32;;;;;;;;;4.00;1.00;;;;;;;;5093230;27;45936;-71
2022/04/01 01:28:57;;;;;;;;;1.00;0.75;;;;;;;;5094313;27;45465;-71
2022/04/01 01:31:23;;;;;;;;;2.00;0.25;;;;;;;;5094971;27;47334;-71
2022/04/01 01:33:49;;;;;;;;;0.00;0.00;;;;;;;;5095238;27;45292;-71
2022/04/01 01:36:14;;;;;;;;;1.00;0.50;;;;;;;;5089680;27;45217;-71
2022/04/01 01:38:39;;;;;;;;;0.25;0.00;;;;;;;;5094658;27;45600;-71
2022/04/01 01:41:05;;;;;;;;;0.00;0.00;;;;;;;;5089915;27;46111;-71
2022/04/01 01:43:30;;;;;;;;;1.25;0.00;;;;;;;;5093492;27;45350;-71
2022/04/01 01:45:55;;;;;;;;;0.00;0.00;;;;;;;;5093891;27;45354;-71
2022/04/01 01:48:22;;;;;;;;;1.50;0.00;;;;;;;;5095155;27;45495;-71
2022/04/01 01:56:15;;;;;;;;;1.00;1.00;;;;;;;;5090058;27;45487;-71
2022/04/01 01:58:40;;;;;;;;;0.00;0.00;;;;;;;;5094920;27;45329;-71
2022/04/01 02:01:05;;;;;;;;;2.00;0.75;;;;;;;;5094593;27;46401;-71
2022/04/01 02:03:30;;;;;;;;;0.75;0.75;;;;;;;;5095195;27;45383;-71
2022/04/01 02:05:56;;;;;;;;;0.25;0.25;;;;;;;;5096859;27;45480;-71
2022/04/01 02:08:22;;;;;;;;;2.00;0.00;;;;;;;;5095634;27;45432;-71
2022/04/01 02:10:47;;;;;;;;;0.75;0.75;;;;;;;;5095620;27;45485;-71
2022/04/01 02:13:13;;;;;;;;;0.00;0.00;;;;;;;;5094470;27;45511;-71
2022/04/01 02:15:38;;;;;;;;;0.25;0.25;;;;;;;;5094975;27;45311;-71
2022/04/01 02:18:03;;;;;;;;;4.50;0.50;;;;;;;;5097029;27;45257;-71
2022/04/01 02:20:31;;;;;;;;;0.75;0.75;;;;;;;;5075969;27;45842;-71
2022/04/01 02:22:56;;;;;;;;;2.00;0.00;;;;;;;;5093616;27;45397;-70
2022/04/01 02:25:21;;;;;;;;;1.00;1.00;;;;;;;;5091739;27;45465;-71
2022/04/01 02:27:46;;;;;;;;;0.00;0.00;;;;;;;;5094943;27;45394;-71
2022/04/01 02:30:12;;;;;;;;;0.00;0.00;;;;;;;;5096342;27;45374;-71
2022/04/01 02:32:38;;;;;;;;;0.00;0.00;;;;;;;;5094253;27;47755;-71
2022/04/01 02:35:04;;;;;;;;;0.25;0.00;;;;;;;;5094394;27;45500;-71
2022/04/01 02:37:29;;;;;;;;;0.50;0.50;;;;;;;;5091529;27;45381;-71
2022/04/01 02:39:55;;;;;;;;;1.00;1.00;;;;;;;;5093554;27;45396;-71
2022/04/01 02:42:20;;;;;;;;;1.25;1.25;;;;;;;;5094705;27;45367;-71
2022/04/01 02:44:45;;;;;;;;;1.00;0.75;;;;;;;;5095438;27;45332;-71
2022/04/01 02:47:11;;;;;;;;;0.50;0.00;;;;;;;;5093166;27;48278;-71
2022/04/01 02:49:36;;;;;;;;;0.75;0.00;;;;;;;;5093814;27;46144;-71
2022/04/01 02:52:01;;;;;;;;;2.00;2.00;;;;;;;;5092218;27;45536;-71
2022/04/01 02:54:26;;;;;;;;;0.50;0.50;;;;;;;;5093759;27;45356;-71
2022/04/01 02:56:52;;;;;;;;;0.00;0.00;;;;;;;;5096440;27;45368;-71
2022/04/01 02:59:17;;;;;;;;;0.00;0.00;;;;;;;;5093623;27;45492;-71
2022/04/01 03:01:42;;;;;;;;;0.00;0.00;;;;;;;;5094710;27;45275;-71
2022/04/01 03:04:09;;;;;;;;;1.75;0.00;;;;;;;;5097833;27;45367;-71
2022/04/01 03:06:35;;;;;;;;;0.00;0.00;;;;;;;;5097445;27;45516;-71
2022/04/01 03:09:00;;;;;;;;;1.75;0.50;;;;;;;;5099222;27;46206;-71
2022/04/01 03:11:25;;;;;;;;;1.00;1.00;;;;;;;;5097284;27;45279;-71
2022/04/01 03:13:50;;;;;;;;;0.25;0.25;;;;;;;;5095386;27;45419;-71
2022/04/01 03:16:16;;;;;;;;;3.00;0.00;;;;;;;;5096389;27;45477;-71
2022/04/01 03:18:42;;;;;;;;;0.00;0.00;;;;;;;;5095809;27;46375;-71
2022/04/01 03:21:09;;;;;;;;;2.00;0.00;;;;;;;;5098372;27;45526;-71
2022/04/01 03:23:35;;;;;;;;;0.25;0.25;;;;;;;;5095163;27;45359;-71
2022/04/01 03:26:02;;;;;;;;;0.00;0.00;;;;;;;;5095516;27;45405;-71
2022/04/01 03:28:27;;;;;;;;;0.00;0.00;;;;;;;;5094883;27;46089;-71
2022/04/01 03:30:52;;;;;;;;;0.00;0.00;;;;;;;;5094957;27;45432;-71
2022/04/01 03:33:17;;;;;;;;;1.25;0.25;;;;;;;;5098000;27;45319;-71
2022/04/01 03:35:43;;;;;;;;;2.00;0.25;;;;;;;;5097885;27;45477;-71
2022/04/01 03:38:10;;;;;;;;;2.75;0.00;;;;;;;;5094907;27;46494;-71
2022/04/01 03:40:35;;;;;;;;;1.00;1.00;;;;;;;;5096977;27;45337;-71
2022/04/01 03:43:01;;;;;;;;;0.25;0.00;;;;;;;;5094654;27;45726;-71
2022/04/01 03:45:26;;;;;;;;;0.00;0.00;;;;;;;;5096960;27;45522;-71
2022/04/01 03:48:10;;;;;;;;;0.00;0.00;;;;;;;;5098959;27;45493;-71
2022/04/01 03:50:38;;;;;;;;;1.00;0.00;;;;;;;;5075438;27;45396;-71
2022/04/01 03:53:05;;;;;;;;;3.50;0.50;;;;;;;;5096778;27;45396;-71
2022/04/01 03:55:32;;;;;;;;;0.00;0.00;;;;;;;;5088172;27;45530;-71
2022/04/01 03:58:01;;;;;;;;;2.25;1.25;;;;;;;;5095187;27;46331;-72
2022/04/01 04:00:27;;;;;;;;;1.25;1.00;;;;;;;;5084598;27;45567;-71
2022/04/01 04:02:53;;;;;;;;;2.25;0.00;;;;;;;;5098639;27;45475;-71
2022/04/01 04:05:20;;;;;;;;;0.75;0.00;;;;;;;;5095761;27;45466;-71
2022/04/01 04:07:46;;;;;;;;;0.00;0.00;;;;;;;;5094233;27;45340;-71
2022/04/01 04:10:12;;;;;;;;;0.00;0.00;;;;;;;;5095306;27;45522;-71
2022/04/01 04:12:38;;;;;;;;;0.00;0.00;;;;;;;;5095779;27;45416;-71
2022/04/01 04:15:03;;;;;;;;;2.00;0.00;;;;;;;;5098789;27;45342;-71
2022/04/01 04:17:38;;;;;;;;;0.50;0.00;;;;;;;;5093751;27;45369;-71
2022/04/01 04:20:18;;;;;;;;;0.00;0.00;;;;;;;;5096161;27;45506;-71
2022/04/01 04:22:56;;;;;;;;;1.25;0.00;;;;;;;;5094615;27;45493;-69
2022/04/01 04:25:24;;;;;;;;;0.00;0.00;;;;;;;;5094660;27;45449;-71
2022/04/01 04:27:53;;;;;;;;;2.00;0.00;;;;;;;;5094988;27;46046;-71
2022/04/01 04:30:18;;;;;;;;;2.00;0.00;;;;;;;;5097349;27;45501;-71
2022/04/01 04:32:50;;;;;;;;;0.67;0.67;;;;;;;;5096095;27;45624;-71
2022/04/01 04:35:16;;;;;;;;;0.00;0.00;;;;;;;;5094845;27;45559;-71
2022/04/01 04:37:45;;;;;;;;;1.75;1.00;;;;;;;;5094641;27;46533;-72
2022/04/01 04:40:12;;;;;;;;;0.50;0.00;;;;;;;;5095957;27;45518;-71
2022/04/01 04:42:38;;;;;;;;;0.00;0.00;;;;;;;;5096367;27;45350;-71
2022/04/01 04:45:04;;;;;;;;;1.00;1.00;;;;;;;;5098141;27;45319;-71
2022/04/01 04:47:30;;;;;;;;;0.25;0.00;;;;;;;;5096172;27;46281;-71
2022/04/01 04:49:57;;;;;;;;;1.00;0.50;;;;;;;;5096993;27;45438;-72
2022/04/01 04:52:26;;;;;;;;;1.00;0.00;;;;;;;;5096895;27;45457;-71
2022/04/01 04:54:52;;;;;;;;;0.00;0.00;;;;;;;;5083474;27;45440;-71
2022/04/01 04:57:19;;;;;;;;;0.00;0.00;;;;;;;;5097441;27;45423;-71
2022/04/01 04:59:45;;;;;;;;;0.00;0.00;;;;;;;;5097059;27;45484;-71
2022/04/01 05:02:14;;;;;;;;;0.00;0.00;;;;;;;;5075382;27;45296;-72
2022/04/01 05:04:45;;;;;;;;;2.50;0.50;;;;;;;;5087372;27;45391;-72
2022/04/01 05:07:17;;;;;;;;;0.00;0.00;;;;;;;;5094487;27;45590;-73
2022/04/01 05:09:53;;;;;;;;;0.00;0.00;;;;;;;;5086864;27;45394;-71
2022/04/01 05:12:32;;;;;;;;;0.00;0.00;;;;;;;;5089350;27;45511;-71
2022/04/01 05:15:10;;;;;;;;;1.50;0.00;;;;;;;;5088119;27;45380;-71
2022/04/01 05:17:44;;;;;;;;;0.00;0.00;;;;;;;;5088585;27;47346;-71
2022/04/01 05:20:16;;;;;;;;;0.75;0.00;;;;;;;;5085259;27;45508;-72
2022/04/01 05:23:01;;;;;;;;;0.00;0.00;;;;;;;;5088605;27;45489;-75
2022/04/01 05:25:27;;;;;;;;;0.00;0.00;;;;;;;;5068356;27;45546;-72
2022/04/01 05:27:58;;;;;;;;;0.00;0.00;;;;;;;;5084877;27;46724;-73
2022/04/01 05:30:28;;;;;;;;;0.00;0.00;;;;;;;;5089174;27;45245;-73
2022/04/01 05:32:54;;;;;;;;;0.00;0.00;;;;;;;;5084222;27;45824;-69
2022/04/01 05:35:19;;;;;;;;;0.00;0.00;;;;;;;;5090112;27;46411;-73
2022/04/01 05:37:46;;;;;;;;;1.00;1.00;;;;;;;;5082932;27;45518;-71
2022/04/01 05:40:11;;;;;;;;;0.00;0.00;;;;;;;;5092879;27;45374;-73
2022/04/01 05:42:37;;;;;;;;;0.00;0.00;;;;;;;;5095323;27;45392;-72
2022/04/01 05:45:02;;;;;;;;;0.00;0.00;;;;;;;;5090611;27;46806;-72
2022/04/01 05:47:31;;;;;;;;;0.00;0.00;;;;;;;;5094721;27;46682;-72
2022/04/01 05:49:57;;;;;;;;;1.00;0.00;;;;;;;;5094368;27;45463;-71
2022/04/01 05:52:23;;;;;;;;;0.67;0.67;;;;;;;;5087793;27;45410;-72
2022/04/01 05:54:48;;;;;;;;;1.00;0.00;;;;;;;;5082501;27;45470;-73
2022/04/01 05:57:17;;;;;;;;;0.50;0.00;;;;;;;;5091219;27;45487;-73
2022/04/01 05:59:42;;;;;;;;;0.00;0.00;;;;;;;;5095074;27;45402;-70
2022/04/01 06:02:14;;;;;;;;;0.00;0.00;;;;;;;;5092670;27;45611;-74
2022/04/01 06:04:57;;;;;;;;;0.00;0.00;;;;;;;;5090881;27;45517;-75
2022/04/01 06:07:27;;;;;;;;;0.00;0.00;;;;;;;;5094199;27;45521;-71
2022/04/01 06:10:07;;;;;;;;;0.00;0.00;;;;;;;;5094266;27;45456;-74
2022/04/01 06:12:48;;;;;;;;;2.00;0.00;;;;;;;;5094391;27;45334;-70
2022/04/01 06:15:25;;;;;;;;;0.50;0.00;;;;;;;;5092204;27;45430;-70
2022/04/01 06:18:00;;;;;;;;;0.00;0.00;;;;;;;;5093365;27;46452;-70
2022/04/01 06:20:26;;;;;;;;;0.00;0.00;;;;;;;;5094184;27;45377;-70
2022/04/01 06:23:05;;;;;;;;;1.00;0.00;;;;;;;;5093424;27;45610;-70
2022/04/01 06:25:34;;;;;;;;;0.00;0.00;;;;;;;;5091497;27;45496;-70
2022/04/01 06:28:24;;;;;;;;;0.50;0.50;;;;;;;;5094443;27;45350;-70
2022/04/01 06:30:49;;;;;;;;;0.75;0.75;;;;;;;;5087218;27;45915;-70
2022/04/01 06:33:18;;;;;;;;;2.75;1.00;;;;;;;;5095928;27;45437;-70
2022/04/01 06:35:47;;;;;;;;;0.00;0.00;;;;;;;;5094677;27;45546;-70
2022/04/01 06:38:19;;;;;;;;;3.00;0.00;;;;;;;;5092161;27;46401;-70
2022/04/01 06:40:47;;;;;;;;;3.25;0.00;;;;;;;;5092366;27;45315;-70
2022/04/01 06:43:13;;;;;;;;;0.00;0.00;;;;;;;;5092491;27;45337;-70
2022/04/01 06:45:40;;;;;;;;;0.75;0.75;;;;;;;;5094611;27;45216;-70
2022/04/01 06:48:05;;;;;;;;;0.00;0.00;;;;;;;;5096155;27;47252;-70
2022/04/01 06:50:31;;;;;;;;;0.00;0.00;;;;;;;;5091937;27;45475;-70
2022/04/01 06:52:56;;;;;;;;;0.00;0.00;;;;;;;;5094358;27;45327;-70
2022/04/01 06:55:21;;;;;;;;;0.00;0.00;;;;;;;;5094981;27;45532;-70
2022/04/01 06:57:46;;;;;;;;;0.00;0.00;;;;;;;;5094887;27;46707;-70
2022/04/01 07:00:13;;;;;;;;;0.00;0.00;;;;;;;;5095732;27;45328;-70
2022/04/01 07:02:39;;;;;;;;;0.00;0.00;;;;;;;;5092586;27;45573;-70
2022/04/01 07:05:05;;;;;;;;;0.75;0.00;;;;;;;;5093437;27;45319;-70
2022/04/01 07:07:31;;;;;;;;;0.33;0.00;;;;;;;;5089869;27;46591;-70
2022/04/01 07:09:56;;;;;;;;;0.00;0.00;;;;;;;;5093023;27;45500;-70
2022/04/01 07:12:23;;;;;;;;;2.33;0.00;;;;;;;;5094348;27;45461;-70
2022/04/01 07:14:49;;;;;;;;;1.25;0.75;;;;;;;;5095215;27;45409;-71
2022/04/01 07:17:14;;;;;;;;;0.00;0.00;;;;;;;;5093224;27;47279;-70
2022/04/01 07:19:39;;;;;;;;;1.00;1.00;;;;;;;;5093417;27;45301;-70
2022/04/01 07:22:06;;;;;;;;;0.00;0.00;;;;;;;;5092087;27;45522;-70
2022/04/01 07:24:32;;;;;;;;;0.00;0.00;;;;;;;;5092965;27;45619;-70
2022/04/01 07:26:57;;;;;;;;;0.00;0.00;;;;;;;;5094338;27;45485;-70
2022/04/01 07:29:23;;;;;;;;;0.00;0.00;;;;;;;;5093944;27;45359;-70
2022/04/01 07:34:33;;;;;;;;;2.67;0.00;;;;;;;;5093411;27;45595;-70
2022/04/01 07:36:59;;;;;;;;;2.00;1.00;;;;;;;;5093255;27;47508;-69
2022/04/01 07:39:24;;;;;;;;;0.00;0.00;;;;;;;;5094160;27;45543;-70
2022/04/01 07:41:49;;;;;;;;;0.00;0.00;;;;;;;;5093040;27;45350;-71
2022/04/01 07:44:14;;;;;;;;;0.00;0.00;;;;;;;;5091105;27;45556;-70
2022/04/01 07:46:40;;;;;;;;;0.00;0.00;;;;;;;;5092288;27;45603;-70
2022/04/01 07:49:05;;;;;;;;;0.00;0.00;;;;;;;;5094364;27;45627;-70
2022/04/01 07:51:30;;;;;;;;;0.00;0.00;;;;;;;;5097381;27;45205;-70
2022/04/01 07:53:55;;;;;;;;;0.75;0.00;;;;;;;;5097302;27;45300;-70
2022/04/01 07:56:21;;;;;;;;;0.00;0.00;;;;;;;;5094681;27;45545;-69
2022/04/01 07:58:46;;;;;;;;;0.00;0.00;;;;;;;;5094256;27;45347;-70
2022/04/01 08:01:11;;;;;;;;;0.00;0.00;;;;;;;;5095062;27;45346;-70
2022/04/01 08:03:41;;;;;;;;;0.00;0.00;;;;;;;;5096693;27;45544;-70
2022/04/01 08:06:07;;;;;;;;;0.67;0.00;;;;;;;;5098739;27;46390;-70
2022/04/01 08:08:32;;;;;;;;;0.00;0.00;;;;;;;;5095925;27;45335;-69
2022/04/01 08:10:57;;;;;;;;;0.00;0.00;;;;;;;;5095424;27;45430;-70
2022/04/01 08:13:23;;;;;;;;;0.00;0.00;;;;;;;;5095372;27;45480;-70
2022/04/01 08:15:48;;;;;;;;;0.00;0.00;;;;;;;;5096624;27;45483;-70
2022/04/01 08:18:13;;;;;;;;;0.00;0.00;;;;;;;;5098333;27;45433;-69
2022/04/01 08:20:38;;;;;;;;;0.00;0.00;;;;;;;;5098747;27;45480;-70
2022/04/01 08:23:05;;;;;;;;;0.00;0.00;;;;;;;;5097874;27;45423;-70
2022/04/01 08:25:30;;;;;;;;;0.00;0.00;;;;;;;;5096723;27;45390;-70
2022/04/01 08:27:56;;;;;;;;;1.75;0.00;;;;;;;;5096641;27;45398;-70
2022/04/01 08:30:21;;;;;;;;;0.00;0.00;;;;;;;;5097234;27;45320;-70
2022/04/01 08:32:47;;;;;;;;;1.00;0.00;;;;;;;;5098282;27;45340;-70
2022/04/01 08:35:12;;;;;;;;;1.25;0.00;;;;;;;;5095826;27;46299;-70
2022/04/01 08:37:38;;;;;;;;;0.00;0.00;;;;;;;;5094345;27;45488;-70
2022/04/01 08:40:05;;;;;;;;;0.50;0.50;;;;;;;;5095933;27;45495;-70
2022/04/01 08:42:32;;;;;;;;;0.75;0.75;;;;;;;;5093887;27;45394;-70
2022/04/01 08:44:57;;;;;;;;;0.00;0.00;;;;;;;;5097479;27;45377;-70
2022/04/01 08:47:23;;;;;;;;;1.00;1.00;;;;;;;;5095886;27;45462;-70
2022/04/01 08:49:48;;;;;;;;;0.00;0.00;;;;;;;;5079353;27;45465;-70
2022/04/01 08:52:14;;;;;;;;;0.00;0.00;;;;;;;;5096765;27;45919;-70
2022/04/01 08:54:39;;;;;;;;;1.00;1.00;;;;;;;;5094347;27;46202;-70
2022/04/01 08:57:05;;;;;;;;;0.75;0.00;;;;;;;;5097579;27;45342;-70
2022/04/01 08:59:31;;;;;;;;;0.00;0.00;;;;;;;;5094809;27;45449;-70
2022/04/01 09:02:09;;;;;;;;;0.00;0.00;;;;;;;;5092898;27;45218;-70
2022/04/01 09:04:35;;;;;;;;;1.00;1.00;;;;;;;;5093722;27;45369;-70
2022/04/01 09:07:10;;;;;;;;;2.00;0.00;;;;;;;;5093855;27;46332;-70
2022/04/01 09:09:35;;;;;;;;;0.00;0.00;;;;;;;;5094687;27;45344;-71
2022/04/01 09:12:08;;;;;;;;;1.00;1.00;;;;;;;;5097833;27;45453;-70
2022/04/01 09:14:34;;;;;;;;;0.00;0.00;;;;;;;;5095072;27;45458;-70
2022/04/01 09:17:00;;;;;;;;;1.00;0.00;;;;;;;;5095291;27;45398;-69
2022/04/01 09:19:32;;;;;;;;;0.00;0.00;;;;;;;;5095338;27;45448;-70
2022/04/01 09:22:14;;;;;;;;;0.75;0.75;;;;;;;;5094969;27;45912;-70
2022/04/01 09:24:51;;;;;;;;;1.75;0.50;;;;;;;;5093709;27;45286;-69
2022/04/01 09:27:16;;;;;;;;;0.00;0.00;;;;;;;;5093423;27;45433;-70
2022/04/01 09:29:41;;;;;;;;;0.00;0.00;;;;;;;;5095505;27;45550;-70
2022/04/01 09:32:08;;;;;;;;;0.00;0.00;;;;;;;;5093003;27;45330;-70
2022/04/01 09:34:37;;;;;;;;;2.67;0.00;;;;;;;;5095048;27;46469;-70
2022/04/01 09:37:02;;;;;;;;;0.75;0.75;;;;;;;;5093176;27;45376;-70
2022/04/01 09:39:28;;;;;;;;;1.00;0.00;;;;;;;;5094711;27;45580;-69
2022/04/01 09:41:55;;;;;;;;;0.00;0.00;;;;;;;;5097074;27;45355;-70
2022/04/01 09:44:25;;;;;;;;;0.00;0.00;;;;;;;;5095078;27;45714;-70
2022/04/01 09:46:52;;;;;;;;;0.00;0.00;;;;;;;;5095739;27;45334;-70
2022/04/01 09:49:30;;;;;;;;;0.25;0.25;;;;;;;;5092885;27;45340;-70
2022/04/01 09:51:56;;;;;;;;;0.75;0.75;;;;;;;;5094810;27;45616;-70
2022/04/01 09:54:22;;;;;;;;;0.67;0.00;;;;;;;;5094721;27;46179;-70
2022/04/01 09:56:50;;;;;;;;;0.25;0.00;;;;;;;;5093980;27;45358;-69
2022/04/01 09:59:16;;;;;;;;;0.00;0.00;;;;;;;;5075665;27;45510;-70
2022/04/01 10:01:43;;;;;;;;;0.00;0.00;;;;;;;;5077516;27;45518;-70
2022/04/01 10:04:08;;;;;;;;;0.00;0.00;;;;;;;;5094750;27;47383;-70
2022/04/01 10:06:34;;;;;;;;;1.00;1.00;;;;;;;;5094583;27;45415;-70
2022/04/01 10:09:02;;;;;;;;;0.00;0.00;;;;;;;;5096891;27;45425;-70
2022/04/01 10:11:28;;;;;;;;;0.50;0.00;;;;;;;;5091940;27;48728;-70
2022/04/01 10:13:54;;;;;;;;;0.00;0.00;;;;;;;;5092662;27;45984;-70
2022/04/01 10:16:20;;;;;;;;;1.75;1.00;;;;;;;;5092899;27;45393;-70
2022/04/01 10:18:51;;;;;;;;;1.00;1.00;;;;;;;;5093278;27;45386;-70
2022/04/01 10:21:19;;;;;;;;;0.00;0.00;;;;;;;;5095843;27;45390;-70
2022/04/01 10:23:49;;;;;;;;;1.00;0.00;;;;;;;;5091766;27;45512;-69
2022/04/01 10:26:15;;;;;;;;;0.00;0.00;;;;;;;;5077260;27;45380;-70
2022/04/01 10:28:45;;;;;;;;;2.75;0.50;;;;;;;;5094401;27;46015;-70
2022/04/01 10:31:14;;;;;;;;;3.00;2.25;;;;;;;;5092817;27;46510;-70
2022/04/01 10:33:39;;;;;;;;;1.25;0.50;;;;;;;;5092997;27;46575;-70
2022/04/01 10:36:31;;;;;;;;;0.00;0.00;;;;;;;;5094447;27;45391;-70
2022/04/01 10:39:01;;;;;;;;;1.00;1.00;;;;;;;;5092195;27;45567;-70
2022/04/01 10:41:26;;;;;;;;;0.00;0.00;;;;;;;;5093135;27;45532;-69
2022/04/01 10:43:55;;;;;;;;;1.00;1.00;;;;;;;;5087639;27;47231;-70
2022/04/01 10:46:20;;;;;;;;;0.25;0.25;;;;;;;;5092446;27;45393;-69
2022/04/01 10:52:01;;;;;;;;;1.75;1.25;;;;;;;;5084561;27;45374;-70
2022/04/01 10:54:29;;;;;;;;;0.50;0.00;;;;;;;;5089543;27;46098;-70
2022/04/01 10:57:05;;;;;;;;;2.00;1.00;;;;;;;;5093511;27;45491;-70
2022/04/01 10:59:46;;;;;;;;;1.00;1.00;;;;;;;;5093993;27;45271;-70
2022/04/01 11:02:13;;;;;;;;;0.67;0.67;;;;;;;;5091867;27;45438;-69
2022/04/01 11:04:42;;;;;;;;;1.00;1.00;;;;;;;;5094027;27;47397;-70
2022/04/01 11:07:10;;;;;;;;;1.00;1.00;;;;;;;;5093301;27;45320;-70
2022/04/01 11:09:38;;;;;;;;;1.25;1.25;;;;;;;;5093600;27;45506;-70
2022/04/01 11:12:25;;;;;;;;;0.50;0.50;;;;;;;;5095396;27;45545;-69
2022/04/01 11:14:53;;;;;;;;;1.25;0.50;;;;;;;;5095360;27;46377;-70
2022/04/01 11:17:19;;;;;;;;;1.00;0.00;;;;;;;;5091621;27;45492;-70
2022/04/01 11:19:59;;;;;;;;;0.00;0.00;;;;;;;;5084271;27;45423;-69
2022/04/01 11:22:40;;;;;;;;;2.00;1.00;;;;;;;;5084361;27;45420;-69
2022/04/01 11:25:06;;;;;;;;;1.00;1.00;;;;;;;;5095114;27;45480;-70
2022/04/01 11:27:33;;;;;;;;;0.00;0.00;;;;;;;;5097313;27;45232;-70
2022/04/01 11:30:14;;;;;;;;;1.00;1.00;;;;;;;;5097928;27;45342;-70
2022/04/01 11:32:41;;;;;;;;;0.00;0.00;;;;;;;;5097497;27;45365;-69
2022/04/01 11:35:08;;;;;;;;;1.00;0.00;;;;;;;;5094825;27;47107;-70
2022/04/01 11:37:35;;;;;;;;;2.00;0.25;;;;;;;;5094897;27;45560;-69
2022/04/01 11:40:11;;;;;;;;;1.00;1.00;;;;;;;;5096088;27;45439;-69
2022/04/01 11:42:52;;;;;;;;;0.25;0.25;;;;;;;;5097088;27;45596;-70
2022/04/01 11:45:18;;;;;;;;;0.00;0.00;;;;;;;;5095143;27;46406;-70
2022/04/01 11:47:44;;;;;;;;;0.00;0.00;;;;;;;;5097802;27;45478;-69
2022/04/01 11:50:10;;;;;;;;;1.00;1.00;;;;;;;;5094688;27;45312;-70
2022/04/01 11:52:38;;;;;;;;;0.75;0.75;;;;;;;;5095273;27;45506;-70
2022/04/01 11:55:10;;;;;;;;;1.00;1.00;;;;;;;;5094252;27;46999;-70
2022/04/01 11:57:35;;;;;;;;;1.00;1.00;;;;;;;;5096537;27;45413;-70
2022/04/01 12:00:01;;;;;;;;;1.00;1.00;;;;;;;;5096056;27;45409;-70
2022/04/01 12:02:28;;;;;;;;;1.00;1.00;;;;;;;;5092227;27;45546;-70
2022/04/01 12:04:53;;;;;;;;;0.50;0.50;;;;;;;;5087561;27;45528;-69
2022/04/01 12:10:04;;;;;;;;;0.25;0.25;;;;;;;;5095929;27;45513;-69
2022/04/01 12:12:30;;;;;;;;;1.00;1.00;;;;;;;;5097717;27;45542;-70
2022/04/01 12:15:00;;;;;;;;;1.25;1.00;;;;;;;;5096771;27;46023;-70
2022/04/01 12:17:25;;;;;;;;;1.75;1.75;;;;;;;;5095601;27;45237;-70
2022/04/01 12:20:06;;;;;;;;;1.00;1.00;;;;;;;;5096273;27;45490;-69
2022/04/01 12:22:35;;;;;;;;;1.00;1.00;;;;;;;;5095490;27;45336;-69
2022/04/01 12:25:00;;;;;;;;;1.00;1.00;;;;;;;;5095337;27;47403;-69
2022/04/01 12:27:25;;;;;;;;;1.00;1.00;;;;;;;;5098191;27;45233;-70
2022/04/01 12:29:50;;;;;;;;;0.75;0.75;;;;;;;;5097292;27;45351;-70
2022/04/01 12:32:16;;;;;;;;;1.00;1.00;;;;;;;;5092545;27;45560;-70
2022/04/01 12:34:45;;;;;;;;;1.00;1.00;;;;;;;;5085009;27;45830;-69
2022/04/01 12:37:13;;;;;;;;;1.50;1.50;;;;;;;;5095399;27;45268;-69
2022/04/01 12:39:40;;;;;;;;;0.00;0.00;;;;;;;;5095247;27;45368;-70
2022/04/01 12:42:09;;;;;;;;;1.00;1.00;;;;;;;;5097721;27;45609;-70
2022/04/01 12:44:35;;;;;;;;;1.00;1.00;;;;;;;;5095723;27;46145;-70
2022/04/01 12:47:03;;;;;;;;;1.00;1.00;;;;;;;;5095384;27;45434;-69
2022/04/01 12:49:33;;;;;;;;;1.00;1.00;;;;;;;;5095804;27;45368;-69
2022/04/01 12:52:06;;;;;;;;;0.75;0.75;;;;;;;;5096766;27;45382;-70
2022/04/01 12:54:39;;;;;;;;;1.00;1.00;;;;;;;;5095931;27;45454;-69
2022/04/01 12:57:08;;;;;;;;;1.00;1.00;;;;;;;;5098085;27;45301;-70
2022/04/01 12:59:46;;;;;;;;;0.50;0.00;;;;;;;;5094613;27;45484;-69
2022/04/01 13:02:13;;;;;;;;;2.75;1.00;;;;;;;;5095236;27;45493;-69
2022/04/01 13:04:42;;;;;;;;;1.00;1.00;;;;;;;;5088220;27;46475;-69
2022/04/01 13:07:09;;;;;;;;;2.00;1.00;;;;;;;;5094617;27;45426;-68
2022/04/01 13:09:54;;;;;;;;;0.00;0.00;;;;;;;;5095380;27;45348;-69
2022/04/01 13:12:23;;;;;;;;;1.00;1.00;;;;;;;;5093790;27;45524;-69
2022/04/01 13:14:59;;;;;;;;;1.00;1.00;;;;;;;;5096149;27;45563;-69
2022/04/01 13:17:25;;;;;;;;;2.75;1.00;;;;;;;;5094787;27;45889;-70
2022/04/01 13:19:50;;;;;;;;;0.25;0.25;;;;;;;;5095641;27;45598;-69
2022/04/01 13:22:15;;;;;;;;;0.00;0.00;;;;;;;;5095367;27;45393;-69
2022/04/01 13:24:46;;;;;;;;;0.00;0.00;;;;;;;;5095414;27;46515;-69
2022/04/01 13:27:12;;;;;;;;;2.00;0.50;;;;;;;;5093536;27;45204;-69
2022/04/01 13:29:38;;;;;;;;;1.00;0.00;;;;;;;;5090513;27;45462;-70
2022/04/01 13:32:04;;;;;;;;;0.75;0.75;;;;;;;;5089438;27;45387;-70
2022/04/01 13:34:30;;;;;;;;;0.25;0.25;;;;;;;;5093530;27;46366;-70
2022/04/01 13:36:55;;;;;;;;;0.25;0.25;;;;;;;;5093156;27;45576;-70
2022/04/01 13:39:21;;;;;;;;;0.50;0.50;;;;;;;;5096532;27;45386;-69
2022/04/01 13:41:47;;;;;;;;;0.00;0.00;;;;;;;;5077706;27;45578;-69
2022/04/01 13:44:12;;;;;;;;;1.00;1.00;;;;;;;;5094133;27;45874;-69
2022/04/01 13:46:37;;;;;;;;;1.00;0.75;;;;;;;;5093219;27;45432;-69
2022/04/01 13:49:03;;;;;;;;;1.50;1.00;;;;;;;;5095465;27;45491;-70
2022/04/01 13:51:30;;;;;;;;;1.00;1.00;;;;;;;;5095814;27;45455;-69
2022/04/01 13:53:55;;;;;;;;;3.00;1.50;;;;;;;;5094826;27;46347;-70
2022/04/01 13:56:21;;;;;;;;;1.25;1.25;;;;;;;;5094858;27;45437;-70
2022/04/01 13:58:46;;;;;;;;;0.00;0.00;;;;;;;;5094486;27;45476;-69
2022/04/01 14:01:12;;;;;;;;;0.75;0.75;;;;;;;;5083426;27;45523;-69
2022/04/01 14:03:38;;;;;;;;;1.00;1.00;;;;;;;;5093627;27;46398;-70
2022/04/01 14:06:04;;;;;;;;;0.75;0.75;;;;;;;;5096709;27;45440;-69
2022/04/01 14:08:29;;;;;;;;;1.75;0.00;;;;;;;;5094541;27;45264;-70
2022/04/01 14:10:54;;;;;;;;;1.00;1.00;;;;;;;;5094108;27;45360;-69
2022/04/01 14:13:19;;;;;;;;;0.00;0.00;;;;;;;;5092993;27;45534;-72
2022/04/01 14:15:45;;;;;;;;;2.00;1.25;;;;;;;;5092737;27;48676;-69
2022/04/01 14:18:11;;;;;;;;;1.00;0.00;;;;;;;;5092560;27;45296;-69
2022/04/01 14:20:36;;;;;;;;;0.25;0.25;;;;;;;;5092258;27;45343;-70
2022/04/01 14:23:01;;;;;;;;;1.50;1.00;;;;;;;;5093572;27;46523;-70
2022/04/01 14:25:27;;;;;;;;;1.25;1.25;;;;;;;;5092948;27;48375;-69
2022/04/01 14:27:52;;;;;;;;;1.00;0.00;;;;;;;;5091735;27;45588;-68
2022/04/01 14:30:22;;;;;;;;;1.00;1.00;;;;;;;;5095343;27;45284;-69
2022/04/01 14:32:47;;;;;;;;;0.50;0.50;;;;;;;;5095371;27;47117;-68
2022/04/01 14:35:12;;;;;;;;;3.00;1.50;;;;;;;;5092393;27;45257;-68
2022/04/01 14:37:38;;;;;;;;;0.00;0.00;;;;;;;;5092491;27;45277;-69
2022/04/01 14:40:05;;;;;;;;;0.25;0.25;;;;;;;;5093885;27;45376;-68
2022/04/01 14:42:30;;;;;;;;;0.75;0.75;;;;;;;;5086190;27;45502;-69
2022/04/01 14:44:55;;;;;;;;;1.00;0.00;;;;;;;;5093880;27;45413;-68
2022/04/01 14:47:20;;;;;;;;;2.75;1.00;;;;;;;;5092532;27;45501;-69
2022/04/01 14:49:46;;;;;;;;;0.25;0.25;;;;;;;;5092301;27;45478;-69
2022/04/01 14:52:11;;;;;;;;;1.00;1.00;;;;;;;;5092227;27;45382;-68
2022/04/01 14:54:36;;;;;;;;;0.00;0.00;;;;;;;;5093835;27;45426;-69
2022/04/01 14:57:02;;;;;;;;;1.00;1.00;;;;;;;;5095358;27;45486;-68
2022/04/01 14:59:28;;;;;;;;;0.00;0.00;;;;;;;;5091190;27;45315;-68